createdAt,value
2023-05-12T00:01:03.368Z,100325.63
2023-05-12T00:03:31.743Z,100329.88
2023-05-12T00:06:03.837Z,100330.31
2023-05-12T00:08:32.268Z,100333.97
2023-05-12T00:11:01.401Z,100331.81
2023-05-12T00:13:29.855Z,100329.88
2023-05-12T00:15:59.370Z,100325.94
2023-05-12T00:18:28.874Z,100328.50
2023-05-12T00:20:57.137Z,100330.19
2023-05-12T00:23:25.589Z,100326.06
2023-05-12T00:25:53.458Z,100331.94
2023-05-12T00:28:21.649Z,100321.59
2023-05-12T00:30:49.557Z,100323.31
2023-05-12T00:33:17.692Z,100324.59
2023-05-12T00:35:45.977Z,100319.78
2023-05-12T00:38:14.480Z,100320.16
2023-05-12T00:40:42.363Z,100312.69
2023-05-12T00:43:11.763Z,100314.16
2023-05-12T00:45:39.891Z,100324.59
2023-05-12T00:48:08.221Z,100316.97
2023-05-12T00:50:36.294Z,100319.66
2023-05-12T00:53:06.590Z,100311.13
2023-05-12T00:55:34.435Z,100318.16
2023-05-12T00:58:02.963Z,100314.34
2023-05-12T01:00:30.883Z,100309.56
2023-05-12T01:02:59.514Z,100311.41
2023-05-12T01:05:36.885Z,100309.09
2023-05-12T01:08:06.435Z,100300.91
2023-05-12T01:10:35.301Z,100310.66
2023-05-12T01:13:03.494Z,100306.53
2023-05-12T01:15:33.364Z,100313.69
2023-05-12T01:18:03.671Z,100313.09
2023-05-12T01:20:33.479Z,100306.28
2023-05-12T01:23:02.776Z,100310.00
2023-05-12T01:25:33.383Z,100313.81
2023-05-12T01:28:05.001Z,100307.84
2023-05-12T01:30:34.723Z,100314.78
2023-05-12T01:33:04.139Z,100315.56
2023-05-12T01:35:32.238Z,100311.22
2023-05-12T01:38:02.073Z,100312.81
2023-05-12T01:40:34.395Z,100318.50
2023-05-12T01:43:03.164Z,100316.09
2023-05-12T01:45:33.792Z,100318.72
2023-05-12T01:48:02.183Z,100316.97
2023-05-12T01:50:30.117Z,100311.22
2023-05-12T01:52:58.830Z,100329.78
2023-05-12T01:55:26.952Z,100327.47
2023-05-12T01:57:57.943Z,100324.84
2023-05-12T02:00:26.170Z,100322.16
2023-05-12T02:02:57.812Z,100319.56
2023-05-12T02:05:26.050Z,100329.28
2023-05-12T02:07:54.897Z,100321.16
2023-05-12T02:10:22.946Z,100322.09
2023-05-12T02:12:51.197Z,100324.06
2023-05-12T02:15:19.199Z,100322.97
2023-05-12T02:17:50.466Z,100318.06
2023-05-12T02:20:19.619Z,100315.31
2023-05-12T02:22:48.040Z,100311.19
2023-05-12T02:25:15.978Z,100308.72
2023-05-12T02:27:49.446Z,100314.00
2023-05-12T02:30:19.593Z,100317.63
2023-05-12T02:32:48.025Z,100316.25
2023-05-12T02:35:16.111Z,100320.53
2023-05-12T02:37:44.269Z,100319.13
2023-05-12T02:40:12.601Z,100313.50
2023-05-12T02:42:41.608Z,100322.00
2023-05-12T02:45:10.466Z,100322.78
2023-05-12T02:47:38.721Z,100317.75
2023-05-12T02:50:08.066Z,100313.94
2023-05-12T02:52:36.237Z,100315.81
2023-05-12T02:55:04.360Z,100320.34
2023-05-12T02:57:34.255Z,100315.31
2023-05-12T03:00:06.296Z,100320.59
2023-05-12T03:02:39.677Z,100318.41
2023-05-12T03:05:09.388Z,100316.97
2023-05-12T03:07:38.553Z,100322.34
2023-05-12T03:10:07.064Z,100309.28
2023-05-12T03:12:35.175Z,100307.19
2023-05-12T03:15:04.877Z,100301.34
2023-05-12T03:17:33.277Z,100307.88
2023-05-12T03:20:01.352Z,100301.25
2023-05-12T03:22:30.312Z,100305.75
2023-05-12T03:24:59.654Z,100306.88
2023-05-12T03:27:29.031Z,100305.06
2023-05-12T03:29:57.824Z,100309.16
2023-05-12T03:32:26.310Z,100301.34
2023-05-12T03:34:54.951Z,100296.91
2023-05-12T03:37:23.232Z,100299.38
2023-05-12T03:39:51.077Z,100296.81
2023-05-12T03:42:19.408Z,100295.97
2023-05-12T03:44:48.660Z,100294.72
2023-05-12T03:47:16.983Z,100305.88
2023-05-12T03:49:45.457Z,100303.78
2023-05-12T03:52:14.285Z,100304.69
2023-05-12T03:54:42.087Z,100303.00
2023-05-12T03:57:10.240Z,100296.75
2023-05-12T03:59:38.080Z,100298.19
2023-05-12T04:02:07.938Z,100299.69
2023-05-12T04:04:35.860Z,100292.84
2023-05-12T08:07:52.642Z,100422.03
2023-05-12T08:10:20.876Z,100423.75
2023-05-12T08:12:48.705Z,100419.75
2023-05-12T08:15:16.832Z,100420.41
2023-05-12T08:17:44.713Z,100420.84
2023-05-12T08:20:13.053Z,100423.38
2023-05-12T08:22:41.033Z,100425.47
2023-05-12T08:25:12.274Z,100422.06
2023-05-12T08:27:40.504Z,100433.91
2023-05-12T08:30:09.930Z,100430.53
2023-05-12T08:32:37.950Z,100435.03
2023-05-12T08:35:06.575Z,100443.06
2023-05-12T08:37:35.002Z,100447.28
2023-05-12T08:40:04.345Z,100439.00
2023-05-12T08:42:42.822Z,100439.88
2023-05-12T08:45:13.067Z,100439.22
2023-05-12T08:47:42.312Z,100445.75
2023-05-12T08:50:11.891Z,100451.13
2023-05-12T08:52:40.164Z,100439.91
2023-05-12T08:55:10.142Z,100444.97
2023-05-12T08:57:39.558Z,100441.88
2023-05-12T09:00:10.858Z,100445.81
2023-05-12T09:02:52.026Z,100443.06
2023-05-12T09:05:23.328Z,100447.25
2023-05-12T09:07:54.961Z,100447.28
2023-05-12T09:13:04.893Z,100447.50
2023-05-12T09:15:40.090Z,100454.44
2023-05-12T09:18:08.113Z,100456.25
2023-05-12T09:20:36.935Z,100459.88
2023-05-12T09:23:23.354Z,100454.31
2023-05-12T09:26:04.384Z,100449.75
2023-05-12T09:28:36.885Z,100449.22
2023-05-12T09:31:22.862Z,100450.09
2023-05-12T09:33:52.295Z,100446.66
2023-05-12T09:36:22.994Z,100447.69
2023-05-12T09:39:08.201Z,100447.25
2023-05-12T09:41:37.903Z,100441.09
2023-05-12T09:44:07.000Z,100447.56
2023-05-12T09:46:36.272Z,100450.50
2023-05-12T09:49:04.137Z,100446.78
2023-05-12T09:51:32.589Z,100451.09
2023-05-12T09:54:01.043Z,100442.00
2023-05-12T09:56:31.767Z,100440.38
2023-05-12T09:59:02.964Z,100439.75
2023-05-12T10:01:31.735Z,100439.34
2023-05-12T10:03:59.831Z,100432.44
2023-05-12T10:06:30.636Z,100431.69
2023-05-12T10:09:20.002Z,100434.44
2023-05-12T10:11:53.498Z,100432.41
2023-05-12T10:14:23.762Z,100439.84
2023-05-12T10:16:53.155Z,100438.22
2023-05-12T10:19:23.152Z,100440.06
2023-05-12T10:21:51.588Z,100443.03
2023-05-12T10:24:22.176Z,100440.81
2023-05-12T10:26:51.366Z,100439.00
2023-05-12T10:29:19.568Z,100443.53
2023-05-12T10:31:49.532Z,100443.28
2023-05-12T10:34:19.443Z,100453.84
2023-05-12T10:36:50.346Z,100453.47
2023-05-12T10:39:18.622Z,100452.34
2023-05-12T10:41:46.945Z,100459.72
2023-05-12T10:44:14.945Z,100462.00
2023-05-12T10:46:43.290Z,100470.16
2023-05-12T10:49:13.292Z,100472.75
2023-05-12T10:51:44.616Z,100459.69
2023-05-12T10:54:20.494Z,100476.56
2023-05-12T10:56:49.118Z,100470.75
2023-05-12T10:59:17.943Z,100470.41
2023-05-12T11:02:05.546Z,100468.88
2023-05-12T11:04:50.421Z,100473.38
2023-05-12T11:07:28.177Z,100468.75
2023-05-12T11:10:01.549Z,100463.59
2023-05-12T11:12:33.481Z,100472.78
2023-05-12T11:15:02.918Z,100466.91
2023-05-12T11:17:32.497Z,100473.66
2023-05-12T11:20:03.251Z,100469.44
2023-05-12T11:22:31.674Z,100468.63
2023-05-12T11:25:10.430Z,100470.13
2023-05-12T11:27:42.813Z,100461.06
2023-05-12T11:30:11.471Z,100468.41
2023-05-12T11:32:39.728Z,100459.59
2023-05-12T11:35:17.258Z,100463.53
2023-05-12T11:37:46.548Z,100470.97
2023-05-12T11:40:20.288Z,100462.34
2023-05-12T11:42:53.027Z,100465.94
2023-05-12T11:45:22.655Z,100467.03
2023-05-12T11:47:51.806Z,100469.28
2023-05-12T11:50:24.701Z,100456.63
2023-05-12T11:52:53.346Z,100460.06
2023-05-12T11:55:24.102Z,100454.69
2023-05-12T11:58:04.328Z,100447.94
2023-05-12T12:00:34.852Z,100451.84
2023-05-12T12:03:15.052Z,100449.47
2023-05-12T12:05:46.195Z,100459.47
2023-05-12T12:08:16.405Z,100451.97
2023-05-12T12:10:46.663Z,100463.34
2023-05-12T12:13:25.829Z,100451.72
2023-05-12T12:15:53.799Z,100448.25
2023-05-12T12:18:22.181Z,100452.09
2023-05-12T12:20:50.126Z,100447.69
2023-05-12T12:23:18.245Z,100454.72
2023-05-12T12:25:45.985Z,100459.59
2023-05-12T12:28:14.194Z,100450.91
2023-05-12T12:30:41.987Z,100451.56
2023-05-12T12:33:09.651Z,100443.56
2023-05-12T12:35:37.760Z,100448.00
2023-05-12T12:38:05.483Z,100439.63
2023-05-12T12:40:33.480Z,100438.59
2023-05-12T12:43:01.534Z,100449.59
2023-05-12T12:45:29.628Z,100453.91
2023-05-12T12:47:57.582Z,100452.25
2023-05-12T12:50:27.184Z,100449.56
2023-05-12T12:52:55.500Z,100447.63
2023-05-12T12:55:24.270Z,100453.84
2023-05-12T12:57:52.086Z,100448.84
2023-05-12T13:00:21.048Z,100447.16
2023-05-12T13:02:49.963Z,100451.59
2023-05-12T13:05:18.349Z,100453.25
2023-05-12T13:07:47.915Z,100452.66
2023-05-12T13:10:16.846Z,100450.88
2023-05-12T13:12:44.602Z,100458.63
2023-05-12T13:15:12.813Z,100444.72
2023-05-12T13:17:40.844Z,100451.91
2023-05-12T13:20:09.676Z,100447.31
2023-05-12T13:22:37.498Z,100456.25
2023-05-12T13:25:08.392Z,100448.91
2023-05-12T13:27:36.527Z,100453.94
2023-05-12T13:30:07.744Z,100456.72
2023-05-12T13:32:35.914Z,100459.84
2023-05-12T13:35:04.629Z,100461.19
2023-05-12T13:37:32.584Z,100458.81
2023-05-12T13:40:00.861Z,100460.66
2023-05-12T13:42:28.681Z,100455.91
2023-05-12T13:44:56.775Z,100460.00
2023-05-12T13:47:24.569Z,100459.53
2023-05-12T13:49:52.903Z,100453.28
2023-05-12T13:52:21.080Z,100455.72
2023-05-12T13:54:49.529Z,100448.97
2023-05-12T13:57:17.294Z,100453.84
2023-05-12T13:59:45.529Z,100447.84
2023-05-12T14:02:14.667Z,100448.94
2023-05-12T14:04:43.027Z,100460.47
2023-05-12T14:07:11.039Z,100447.88
2023-05-12T14:09:39.061Z,100456.41
2023-05-12T14:12:07.436Z,100453.91
2023-05-12T14:14:35.749Z,100460.56
2023-05-12T14:17:03.703Z,100456.78
2023-05-12T14:19:31.789Z,100462.75
2023-05-12T14:21:59.723Z,100460.84
2023-05-12T14:24:29.381Z,100456.63
2023-05-12T14:26:57.501Z,100456.13
2023-05-12T14:29:25.719Z,100450.16
2023-05-12T14:31:53.700Z,100455.16
2023-05-12T14:34:23.532Z,100455.69
2023-05-12T14:36:51.468Z,100453.28
2023-05-12T14:39:19.828Z,100453.03
2023-05-12T14:41:47.845Z,100461.41
2023-05-12T14:44:16.240Z,100452.50
2023-05-12T14:46:44.109Z,100452.88
2023-05-12T14:49:14.210Z,100444.28
2023-05-12T14:51:43.645Z,100441.72
2023-05-12T14:54:24.334Z,100439.66
2023-05-12T14:56:53.698Z,100444.19
2023-05-12T14:59:21.914Z,100438.31
2023-05-12T15:01:49.774Z,100443.22
2023-05-12T15:04:18.026Z,100444.00
2023-05-12T15:06:46.017Z,100445.63
2023-05-12T15:09:14.162Z,100440.97
2023-05-12T15:11:45.522Z,100435.75
2023-05-12T15:14:13.823Z,100436.75
2023-05-12T15:16:42.093Z,100440.72
2023-05-12T15:19:10.611Z,100441.34
2023-05-12T15:21:38.404Z,100436.53
2023-05-12T15:24:06.727Z,100437.25
2023-05-12T15:26:35.769Z,100438.75
2023-05-12T15:29:06.253Z,100443.59
2023-05-12T15:31:35.423Z,100447.22
2023-05-12T15:34:03.696Z,100442.66
2023-05-12T15:36:32.502Z,100449.56
2023-05-12T15:39:01.153Z,100445.22
2023-05-12T15:41:29.052Z,100451.88
2023-05-12T15:43:57.282Z,100450.63
2023-05-12T15:46:25.208Z,100452.06
2023-05-12T15:48:53.400Z,100446.50
2023-05-12T15:51:21.248Z,100458.06
2023-05-12T15:53:51.092Z,100451.91
2023-05-12T15:56:18.861Z,100455.09
2023-05-12T15:58:47.355Z,100451.97
2023-05-12T16:01:15.117Z,100451.19
2023-05-12T16:03:43.296Z,100448.31
2023-05-12T16:06:11.155Z,100440.16
2023-05-12T16:08:39.609Z,100441.78
2023-05-12T16:11:07.305Z,100442.31
2023-05-12T16:13:35.705Z,100442.03
2023-05-12T16:16:03.705Z,100448.88
2023-05-12T16:18:32.289Z,100447.00
2023-05-12T16:21:02.027Z,100444.47
2023-05-12T16:23:30.367Z,100444.63
2023-05-12T16:25:59.501Z,100446.22
2023-05-12T16:28:28.280Z,100441.78
2023-05-12T16:30:56.747Z,100437.47
2023-05-12T16:33:24.921Z,100445.81
2023-05-12T16:35:52.881Z,100451.06
2023-05-12T16:38:21.181Z,100452.50
2023-05-12T16:40:49.528Z,100443.28
2023-05-12T16:43:17.639Z,100447.44
2023-05-12T16:45:45.472Z,100452.97
2023-05-12T16:48:13.832Z,100445.13
2023-05-12T16:50:41.596Z,100447.81
2023-05-12T16:53:09.670Z,100449.88
2023-05-12T16:55:37.460Z,100451.78
2023-05-12T16:58:05.559Z,100451.66
2023-05-12T17:00:33.391Z,100455.91
2023-05-12T17:03:03.726Z,100452.97
2023-05-12T17:05:32.436Z,100458.09
2023-05-12T17:08:00.569Z,100472.69
2023-05-12T17:10:28.540Z,100466.47
2023-05-12T17:12:56.798Z,100469.56
2023-05-12T17:15:24.750Z,100473.84
2023-05-12T17:17:52.979Z,100478.94
2023-05-12T17:20:22.408Z,100476.75
2023-05-12T17:22:52.030Z,100480.69
2023-05-12T17:25:20.221Z,100493.09
2023-05-12T17:27:49.645Z,100499.28
2023-05-12T17:30:18.837Z,100499.97
2023-05-12T17:32:46.992Z,100507.81
2023-05-12T17:35:15.199Z,100515.59
2023-05-12T17:37:43.303Z,100510.00
2023-05-12T17:40:17.077Z,100523.16
2023-05-12T17:42:45.400Z,100519.13
2023-05-12T17:45:16.416Z,100519.50
2023-05-12T17:47:45.442Z,100522.53
2023-05-12T17:50:15.394Z,100522.97
2023-05-12T17:52:43.820Z,100524.13
2023-05-12T17:55:11.912Z,100529.25
2023-05-12T17:57:40.364Z,100523.88
2023-05-12T18:00:10.653Z,100531.91
2023-05-12T18:02:45.315Z,100530.81
2023-05-12T18:05:13.257Z,100531.56
2023-05-12T18:07:41.346Z,100536.84
2023-05-12T18:10:10.495Z,100539.66
2023-05-12T18:12:39.321Z,100537.56
2023-05-12T18:15:07.831Z,100545.19
2023-05-12T18:17:36.297Z,100543.88
2023-05-12T18:20:04.847Z,100551.53
2023-05-12T18:22:32.966Z,100547.28
2023-05-12T18:25:00.851Z,100555.41
2023-05-12T18:27:28.980Z,100562.66
2023-05-12T18:29:56.838Z,100555.19
2023-05-12T18:32:26.318Z,100564.78
2023-05-12T18:34:54.436Z,100567.59
2023-05-12T18:37:23.160Z,100573.22
2023-05-12T18:39:51.345Z,100568.47
2023-05-12T18:42:19.792Z,100575.56
2023-05-12T18:44:47.698Z,100579.97
2023-05-12T18:47:15.819Z,100571.59
2023-05-12T18:49:43.824Z,100582.81
2023-05-12T18:52:12.086Z,100586.84
2023-05-12T18:54:40.348Z,100600.56
2023-05-12T18:57:08.850Z,100601.25
2023-05-12T18:59:36.593Z,100602.19
2023-05-12T19:02:05.135Z,100596.75
2023-05-12T19:04:32.992Z,100598.19
2023-05-12T19:07:01.155Z,100601.34
2023-05-12T19:09:28.955Z,100613.34
2023-05-12T19:11:57.056Z,100616.56
2023-05-12T19:14:24.899Z,100621.25
2023-05-12T19:16:53.167Z,100618.47
2023-05-12T19:19:21.032Z,100637.69
2023-05-12T19:21:49.210Z,100634.59
2023-05-12T19:24:17.036Z,100635.38
2023-05-12T19:26:45.363Z,100642.63
2023-05-12T19:29:13.466Z,100650.13
2023-05-12T19:31:41.637Z,100643.31
2023-05-12T19:34:09.655Z,100657.72
2023-05-12T19:36:37.925Z,100657.50
2023-05-12T19:39:05.721Z,100654.84
2023-05-12T19:41:33.967Z,100657.53
2023-05-12T19:44:01.861Z,100659.31
2023-05-12T19:46:30.006Z,100668.78
2023-05-12T19:48:57.872Z,100674.47
2023-05-12T19:51:26.169Z,100665.75
2023-05-12T19:53:54.085Z,100678.72
2023-05-12T19:56:22.551Z,100678.72
2023-05-12T19:58:50.649Z,100671.59
2023-05-12T20:01:19.218Z,100685.34
2023-05-12T20:03:47.197Z,100682.09
2023-05-12T20:06:15.511Z,100684.66
2023-05-12T20:08:43.508Z,100686.97
2023-05-12T20:11:12.068Z,100693.78
2023-05-12T20:13:39.877Z,100688.63
2023-05-12T20:16:08.189Z,100701.41
2023-05-12T20:18:35.976Z,100697.81
2023-05-12T20:21:04.152Z,100695.06
2023-05-12T20:23:32.343Z,100687.13
2023-05-12T20:26:00.499Z,100693.00
2023-05-12T20:28:29.419Z,100693.44
2023-05-12T20:30:57.550Z,100694.63
2023-05-12T20:33:25.447Z,100700.19
2023-05-12T20:35:53.876Z,100695.97
2023-05-12T20:38:21.692Z,100700.22
2023-05-12T20:40:49.847Z,100704.50
2023-05-12T20:43:17.720Z,100702.94
2023-05-12T20:45:45.996Z,100702.16
2023-05-12T20:48:15.015Z,100698.63
2023-05-12T20:50:45.579Z,100708.75
2023-05-12T20:53:13.357Z,100701.53
2023-05-12T20:55:43.297Z,100707.63
2023-05-12T20:58:11.432Z,100711.38
2023-05-12T21:00:39.827Z,100700.88
2023-05-12T21:03:11.033Z,100712.19
2023-05-12T21:05:39.662Z,100709.59
2023-05-12T21:08:07.979Z,100695.38
2023-05-12T21:10:39.565Z,100704.09
2023-05-12T21:13:07.441Z,100705.53
2023-05-12T21:15:36.133Z,100701.09
2023-05-12T21:18:04.219Z,100707.25
2023-05-12T21:20:32.656Z,100699.69
2023-05-12T21:23:00.711Z,100701.19
2023-05-12T21:25:29.149Z,100702.53
2023-05-12T21:27:57.324Z,100696.91
2023-05-12T21:30:25.668Z,100698.00
2023-05-12T21:32:53.665Z,100703.84
2023-05-12T21:35:21.808Z,100700.00
2023-05-12T21:37:50.169Z,100705.41
2023-05-12T21:40:18.601Z,100710.59
2023-05-12T21:42:46.977Z,100711.13
2023-05-12T21:45:15.901Z,100710.19
2023-05-12T21:47:43.881Z,100714.34
2023-05-12T21:50:12.476Z,100729.31
2023-05-12T21:52:40.483Z,100720.97
2023-05-12T21:55:09.445Z,100731.13
2023-05-12T21:57:37.234Z,100728.00
2023-05-12T22:00:07.619Z,100728.19
2023-05-12T22:02:38.689Z,100737.06
2023-05-12T22:05:08.079Z,100738.28
2023-05-12T22:07:35.990Z,100738.06
2023-05-12T22:10:04.890Z,100741.19
2023-05-12T22:12:32.862Z,100742.22
2023-05-12T22:15:01.397Z,100748.69
2023-05-12T22:17:29.510Z,100746.88
2023-05-12T22:19:57.600Z,100747.72
2023-05-12T22:22:25.553Z,100753.06
2023-05-12T22:24:54.100Z,100748.91
2023-05-12T22:27:22.782Z,100753.16
2023-05-12T22:29:51.022Z,100754.00
2023-05-12T22:32:18.843Z,100758.91
2023-05-12T22:34:47.248Z,100756.00
2023-05-12T22:37:15.314Z,100759.09
2023-05-12T22:39:43.523Z,100758.59
2023-05-12T22:42:11.517Z,100761.53
2023-05-12T22:44:39.707Z,100763.66
2023-05-12T22:47:07.771Z,100763.22
2023-05-12T22:49:36.204Z,100769.97
2023-05-12T22:52:06.090Z,100764.72
2023-05-12T22:54:34.613Z,100765.03
2023-05-12T22:57:02.554Z,100767.19
2023-05-12T22:59:31.331Z,100769.34
2023-05-12T23:01:59.116Z,100768.94
2023-05-12T23:04:27.360Z,100761.00
2023-05-12T23:06:55.391Z,100764.56
2023-05-12T23:09:23.553Z,100767.22
2023-05-12T23:11:51.559Z,100767.59
2023-05-12T23:14:19.727Z,100768.91
2023-05-12T23:16:48.354Z,100766.41
2023-05-12T23:19:16.640Z,100756.81
2023-05-12T23:21:44.601Z,100761.47
2023-05-12T23:24:12.679Z,100765.72
2023-05-12T23:26:40.717Z,100771.59
2023-05-12T23:29:08.815Z,100761.91
2023-05-12T23:31:36.754Z,100775.31
2023-05-12T23:34:05.200Z,100771.91
2023-05-12T23:36:33.146Z,100775.22
2023-05-12T23:39:01.396Z,100769.34
2023-05-12T23:41:32.094Z,100768.53
2023-05-12T23:44:00.210Z,100772.28
2023-05-12T23:46:28.133Z,100779.56
2023-05-12T23:48:56.778Z,100784.63
2023-05-12T23:51:24.716Z,100777.72
2023-05-12T23:53:52.824Z,100773.53
2023-05-12T23:56:21.827Z,100770.59
2023-05-12T23:58:50.210Z,100757.47
